Aeroporto :
LOGIN :

Iscrizione | Disclaimer

   EN    FR    IT 

 










Sommario :    VFR   VFR Marginale   IFR   IFR Intensivo   IFR Molto Intensivo
Visibilità : 
Base nubi : 
>= 8 km
>= 3000ft
5 / 8 km
1000 / 3000 ft
1500m / 5 km
500 / 1000 ft
800 / 1500m
200 / 500 ft
< 800m
< 200 ft
Simboli :   Temporali  Nebbia  Neve Forte  Precipitazioni Forti  Vento > 20 kt
SIGMETs :   Varie  Temporali  Ghiacco  Turbolenza  Onda orograficha  Ceneri Vulcaniche







- Altitudine del aeroporto : 132 ft


EGXE - RAF Leeming

ULTIMO METAR :
  • 171150Z 22017KT 9999 FEW028 SCT070 BKN250 16/09 Q1013 BLU NOSIG RMK BLU BLU

METARs OBSOLETI :
  • 171120Z 21015KT 9999 -RA SCT026 BKN080 BKN250 16/10 Q1013 TEMPO SCT024 RMK BLU TEMPO WHT
  • 171050Z 22018KT 9999 SCT027 BKN250 17/10 Q1012 TEMPO BKN024 RMK BLU TEMPO WHT
  • 171021Z 20016KT 9999 -RA BKN027 BKN250 16/11 Q1013 TEMPO BKN024 RMK BLU TEMPO WHT
  • 170950Z 19013KT 9999 FEW026 BKN040 16/11 Q1013 NOSIG RMK BLU BLU
  • 170920Z 17012KT 9999 FEW024 BKN042 16/10 Q1013 NOSIG RMK BLU BLU

TAF TAF EGXE
Valido dal 17 a 12 ore il 17 a 18 ore UTC


171020Z 1712/1718 21012KT 9999 BKN040
PROB40
TEMPO 1712/1715 21015G25KT
PROB30
TEMPO 1712/1718 7000 SHRA BKN024
Nessun NOTAM noto per questo aeroporto.



MetMap, La meteo Aeronautica in un colpo d'occhio ! - Copyright ORBIFLY Dicembre 2007 - Disclaimer

ORBIFLY MET'MAP TEAM :

Programmazione e sviluppo : Alexandra Zaïnal
Concezione e sviluppo : Baudouin d'Aumeries
Co-Programmazione e sviluppo : Marc-Olivier Méhu
Supporto tecnico e logistico : Manuel Goepfert
Aiuto per la traduzione : Arnaldo La Scala

Contatto : metmap@orbifly.com




FONTI E CREDITI :

   NOAA